Conway, Michigan
Current Conditions -  °F | °C
As of 11:55 PM on Monday 20 Oct 2014 (Local Time) from KMGN Reporting Station
Drizzle Drizzle  
Wind Chill: 44°   Ceiling: 1500
Heat Index: 46°   Visibility: 4mi
Dew Point: 44°   Wind: 5mph
Humidity: 93%   Direction: 350°N
Pressure: 29.94"   Gusts: NA
Location:  45.42°N, 84.87°W
Report Text: KMGN 210355Z AUTO 35004KT 4SM -DZ SCT009 OVC015 07/06 A2994 RMK AO2 T00800069
Loading
Personal Weather Stations






























Interactive Weather Map
Tropical Storm Tracking
New forecast layout! Learn more

10-Day Weather Forecast

Advertisements
Track Severe Weather on mobile